createdAt,value
2022-09-19T00:04:53.670Z,0.00
2022-09-19T00:09:54.343Z,0.00
2022-09-19T00:14:55.061Z,0.00
2022-09-19T00:19:55.875Z,0.00
2022-09-19T00:24:56.534Z,0.00
2022-09-19T00:29:57.315Z,0.00
2022-09-19T00:34:58.109Z,0.00
2022-09-19T00:39:58.818Z,0.00
2022-09-19T00:44:59.505Z,0.00
2022-09-19T00:50:00.239Z,0.00
2022-09-19T00:55:00.915Z,0.00
2022-09-19T01:00:01.673Z,0.00
2022-09-19T01:05:02.490Z,0.00
2022-09-19T01:10:03.140Z,0.00
2022-09-19T01:15:03.852Z,0.00
2022-09-19T01:20:04.668Z,0.00
2022-09-19T01:25:05.329Z,0.00
2022-09-19T01:30:06.031Z,0.00
2022-09-19T01:35:06.760Z,0.00
2022-09-19T01:40:07.661Z,0.00
2022-09-19T01:45:08.394Z,0.00
2022-09-19T01:50:09.171Z,0.00
2022-09-19T01:55:09.976Z,0.00
2022-09-19T02:00:10.632Z,0.00
2022-09-19T02:05:11.367Z,0.00
2022-09-19T02:10:12.170Z,0.00
2022-09-19T02:15:12.811Z,0.00
2022-09-19T02:20:13.528Z,0.00
2022-09-19T02:25:14.364Z,0.00
2022-09-19T02:30:15.008Z,0.00
2022-09-19T02:35:15.721Z,0.00
2022-09-19T02:40:16.612Z,0.00
2022-09-19T02:45:17.299Z,0.00
2022-09-19T02:50:18.048Z,0.00
2022-09-19T02:55:18.750Z,0.00
2022-09-19T03:00:19.570Z,0.00
2022-09-19T03:05:20.221Z,0.00
2022-09-19T03:10:20.924Z,0.00
2022-09-19T03:15:21.648Z,0.00
2022-09-19T03:20:22.462Z,0.00
2022-09-19T03:25:23.113Z,0.00
2022-09-19T03:30:23.838Z,0.00
2022-09-19T03:35:24.561Z,0.00
2022-09-19T03:40:25.440Z,0.00
2022-09-19T03:45:33.175Z,0.00
2022-09-19T03:50:26.856Z,0.00
2022-09-19T03:55:27.684Z,0.00
2022-09-19T04:00:28.333Z,0.00
2022-09-19T04:05:29.038Z,0.00
2022-09-19T04:10:29.752Z,0.00
2022-09-19T04:15:30.574Z,0.00
2022-09-19T04:20:31.200Z,1.00
2022-09-19T04:25:31.969Z,3.00
2022-09-19T04:30:32.737Z,2.00
2022-09-19T04:35:33.333Z,3.00
2022-09-19T04:40:34.030Z,7.00
2022-09-19T04:45:34.806Z,10.00
2022-09-19T04:50:35.541Z,31.00
2022-09-19T04:55:37.260Z,44.00
2022-09-19T05:00:37.277Z,82.00
2022-09-19T05:05:37.447Z,93.00
2022-09-19T05:10:38.107Z,45.00
2022-09-19T05:15:38.750Z,202.00
2022-09-19T05:20:39.526Z,217.00
2022-09-19T05:25:40.157Z,206.00
2022-09-19T05:30:40.831Z,228.00
2022-09-19T05:35:41.585Z,190.00
2022-09-19T05:40:42.232Z,218.00
2022-09-19T05:45:42.865Z,212.00
2022-09-19T05:50:43.517Z,225.00
2022-09-19T05:55:44.285Z,250.00
2022-09-19T06:00:44.873Z,277.00
2022-09-19T06:05:45.519Z,331.00
2022-09-19T06:10:49.910Z,278.00
2022-09-19T06:15:46.889Z,420.00
2022-09-19T06:20:47.599Z,468.00
2022-09-19T06:25:48.325Z,452.00
2022-09-19T06:30:49.163Z,601.00
2022-09-19T06:35:49.883Z,551.00
2022-09-19T06:40:50.606Z,639.00
2022-09-19T06:45:51.275Z,650.00
2022-09-19T06:50:51.907Z,731.00
2022-09-19T06:55:52.674Z,796.00
2022-09-19T07:00:55.296Z,500.00
2022-09-19T07:05:53.780Z,1175.00
2022-09-19T07:10:54.425Z,1426.00
2022-09-19T07:15:55.227Z,1303.00
2022-09-19T07:20:55.834Z,1059.00
2022-09-19T07:25:56.533Z,1080.00
2022-09-19T07:30:57.288Z,931.00
2022-09-19T07:35:57.944Z,1277.00
2022-09-19T07:40:58.686Z,1772.00
2022-09-19T07:45:59.560Z,1678.00
2022-09-19T07:51:00.435Z,1254.00
2022-09-19T07:56:01.253Z,963.00
2022-09-19T08:01:02.223Z,1475.00
2022-09-19T08:06:02.599Z,1881.00
2022-09-19T08:11:03.308Z,1855.00
2022-09-19T08:16:04.122Z,3609.00
2022-09-19T08:21:04.772Z,2737.00
2022-09-19T08:26:05.408Z,816.00
2022-09-19T08:31:06.201Z,3626.00
2022-09-19T08:36:06.842Z,3878.00
2022-09-19T08:41:07.508Z,3497.00
2022-09-19T08:46:08.278Z,1899.00
2022-09-19T08:51:09.149Z,3723.00
2022-09-19T08:56:09.908Z,3554.00
2022-09-19T09:01:10.761Z,2752.00
2022-09-19T09:06:11.603Z,1816.00
2022-09-19T09:11:12.269Z,1018.00
2022-09-19T09:16:13.000Z,6035.00
2022-09-19T09:21:13.783Z,2775.00
2022-09-19T09:26:14.454Z,5689.00
2022-09-19T09:31:15.068Z,3436.00
2022-09-19T09:36:15.771Z,880.00
2022-09-19T09:41:16.538Z,6430.00
2022-09-19T09:46:24.233Z,3594.00
2022-09-19T09:51:18.010Z,2401.00
2022-09-19T09:56:18.805Z,1154.00
2022-09-19T10:01:19.634Z,882.00
2022-09-19T10:06:20.390Z,537.00
2022-09-19T10:16:22.809Z,1126.00
2022-09-19T10:21:22.538Z,800.00
2022-09-19T10:26:23.174Z,618.00
2022-09-19T10:31:23.920Z,379.00
2022-09-19T10:36:24.680Z,405.00
2022-09-19T10:41:25.334Z,269.00
2022-09-19T10:46:26.076Z,222.00
2022-09-19T10:51:26.820Z,630.00
2022-09-19T10:56:27.510Z,1207.00
2022-09-19T11:01:28.290Z,1399.00
2022-09-19T11:06:29.062Z,1536.00
2022-09-19T11:11:29.691Z,2092.00
2022-09-19T11:16:30.409Z,1146.00
2022-09-19T11:21:31.027Z,8050.00
2022-09-19T11:26:31.804Z,8392.00
2022-09-19T11:36:33.964Z,8791.00
2022-09-19T11:41:33.651Z,7055.00
2022-09-19T11:46:34.326Z,6400.00
2022-09-19T11:51:35.001Z,7381.00
2022-09-19T11:56:35.695Z,5969.00
2022-09-19T12:01:36.496Z,6457.00
2022-09-19T12:06:37.114Z,773.00
2022-09-19T12:11:37.787Z,1744.00
2022-09-19T12:16:38.541Z,1000.00
2022-09-19T12:21:39.211Z,798.00
2022-09-19T12:26:39.874Z,801.00
2022-09-19T12:31:40.582Z,450.00
2022-09-19T12:36:44.377Z,332.00
2022-09-19T12:41:41.990Z,316.00
2022-09-19T12:46:42.647Z,413.00
2022-09-19T12:51:43.305Z,380.00
2022-09-19T12:56:44.049Z,322.00
2022-09-19T13:01:44.827Z,340.00
2022-09-19T13:06:45.517Z,391.00
2022-09-19T13:11:46.291Z,425.00
2022-09-19T13:16:46.966Z,608.00
2022-09-19T13:21:47.669Z,1189.00
2022-09-19T13:26:48.418Z,1320.00
2022-09-19T13:31:49.101Z,1193.00
2022-09-19T13:36:49.831Z,1147.00
2022-09-19T13:41:50.524Z,1393.00
2022-09-19T13:46:51.263Z,1557.00
2022-09-19T13:51:51.926Z,1426.00
2022-09-19T13:56:52.588Z,1408.00
2022-09-19T14:01:53.268Z,1131.00
2022-09-19T14:11:55.487Z,715.00
2022-09-19T14:16:55.186Z,844.00
2022-09-19T14:21:55.864Z,986.00
2022-09-19T14:26:56.535Z,1121.00
2022-09-19T14:31:57.278Z,1605.00
2022-09-19T14:36:58.000Z,2170.00
2022-09-19T14:42:13.713Z,2036.00
2022-09-19T14:47:00.364Z,1615.00
2022-09-19T14:52:00.049Z,1252.00
2022-09-19T14:57:00.728Z,1299.00
2022-09-19T15:02:01.412Z,1361.00
2022-09-19T15:07:02.200Z,1214.00
2022-09-19T15:12:02.847Z,1209.00
2022-09-19T15:17:03.522Z,1377.00
2022-09-19T15:22:04.193Z,1606.00
2022-09-19T15:27:04.859Z,1554.00
2022-09-19T15:32:05.672Z,1592.00
2022-09-19T15:37:06.337Z,1572.00
2022-09-19T15:42:07.063Z,1391.00
2022-09-19T15:47:07.708Z,1198.00
2022-09-19T15:52:08.452Z,1073.00
2022-09-19T15:57:09.191Z,985.00
2022-09-19T16:02:10.152Z,1070.00
2022-09-19T16:07:10.364Z,1085.00
2022-09-19T16:12:11.050Z,898.00
2022-09-19T16:17:11.794Z,751.00
2022-09-19T16:22:12.672Z,666.00
2022-09-19T16:27:13.338Z,729.00
2022-09-19T16:32:14.021Z,646.00
2022-09-19T16:37:14.720Z,524.00
2022-09-19T16:42:15.454Z,412.00
2022-09-19T16:47:16.224Z,339.00
2022-09-19T16:52:16.895Z,279.00
2022-09-19T16:57:17.564Z,209.00
2022-09-19T17:02:18.233Z,156.00
2022-09-19T17:07:18.931Z,117.00
2022-09-19T17:12:19.625Z,80.00
2022-09-19T17:17:20.339Z,56.00
2022-09-19T17:22:21.002Z,35.00
2022-09-19T17:27:21.648Z,20.00
2022-09-19T17:32:22.332Z,11.00
2022-09-19T17:37:23.026Z,4.00
2022-09-19T17:42:23.710Z,2.00
2022-09-19T17:47:43.346Z,0.00
2022-09-19T17:52:26.114Z,0.00
2022-09-19T17:57:25.888Z,0.00
2022-09-19T18:02:26.608Z,0.00
2022-09-19T18:07:30.894Z,0.00
2022-09-19T18:12:28.405Z,0.00
2022-09-19T18:17:29.361Z,0.00
2022-09-19T18:22:30.407Z,0.00
2022-09-19T18:27:30.717Z,0.00
2022-09-19T18:32:31.505Z,0.00
2022-09-19T18:37:32.200Z,0.00
2022-09-19T18:42:32.985Z,0.00
2022-09-19T18:47:33.744Z,0.00
2022-09-19T18:52:34.450Z,0.00
2022-09-19T18:57:35.177Z,0.00
2022-09-19T19:02:36.014Z,0.00
2022-09-19T19:07:36.753Z,0.00
2022-09-19T19:12:43.702Z,0.00
2022-09-19T19:17:39.187Z,0.00
2022-09-19T19:22:38.954Z,0.00
2022-09-19T19:27:39.652Z,0.00
2022-09-19T19:32:40.376Z,0.00
2022-09-19T19:37:41.064Z,0.00
2022-09-19T19:42:41.828Z,0.00
2022-09-19T19:47:42.603Z,0.00
2022-09-19T19:52:43.305Z,0.00
2022-09-19T19:57:44.058Z,0.00
2022-09-19T20:02:44.731Z,0.00
2022-09-19T20:07:45.444Z,0.00
2022-09-19T20:12:46.173Z,0.00
2022-09-19T20:17:47.035Z,0.00
2022-09-19T20:22:47.701Z,0.00
2022-09-19T20:27:48.448Z,0.00
2022-09-19T20:32:49.320Z,0.00
2022-09-19T20:37:50.057Z,0.00
2022-09-19T20:42:50.779Z,0.00
2022-09-19T20:47:51.576Z,0.00
2022-09-19T20:52:52.333Z,0.00
2022-09-19T20:57:53.044Z,0.00
2022-09-19T21:02:53.771Z,0.00
2022-09-19T21:07:54.439Z,0.00
2022-09-19T21:12:55.286Z,0.00
2022-09-19T21:17:55.998Z,0.00
2022-09-19T21:22:56.743Z,0.00
2022-09-19T21:27:57.588Z,0.00
2022-09-19T21:32:58.300Z,0.00
2022-09-19T21:37:59.117Z,0.00
2022-09-19T21:42:59.831Z,0.00
2022-09-19T21:48:00.552Z,0.00
2022-09-19T21:53:01.282Z,0.00
2022-09-19T21:58:01.976Z,0.00
2022-09-19T22:03:02.727Z,0.00
2022-09-19T22:08:10.404Z,0.00
2022-09-19T22:13:04.124Z,0.00
2022-09-19T22:18:04.822Z,0.00
2022-09-19T22:23:05.560Z,0.00
2022-09-19T22:28:06.282Z,0.00
2022-09-19T22:33:06.981Z,0.00
2022-09-19T22:38:07.753Z,0.00
2022-09-19T22:43:08.494Z,0.00
2022-09-19T22:48:09.187Z,0.00
2022-09-19T22:53:09.911Z,0.00
2022-09-19T22:58:10.680Z,0.00
2022-09-19T23:03:11.454Z,0.00
2022-09-19T23:08:12.244Z,0.00
2022-09-19T23:13:12.973Z,0.00
2022-09-19T23:18:13.650Z,0.00
2022-09-19T23:23:14.429Z,0.00
2022-09-19T23:28:15.147Z,0.00
2022-09-19T23:33:15.862Z,0.00
2022-09-19T23:38:16.561Z,0.00
2022-09-19T23:43:17.309Z,0.00
2022-09-19T23:48:18.031Z,0.00
2022-09-19T23:53:18.720Z,0.00
2022-09-19T23:58:19.467Z,0.00
